Saint Paris, Ohio
Current Conditions -  °F | °C
As of 1:10 AM on Monday 26 Jan 2015 (Local Time) from KEDJ Reporting Station
Overcast Overcast  
Wind Chill:   Ceiling: 1000
Heat Index: 18°   Visibility: 2mi
Dew Point: 18°   Wind: 20mph
Humidity: 100%   Direction: 20°NNE
Pressure: 29.79"   Gusts: 24mph
Location:  40.13°N, 83.96°W
Report Text: KEDJ 260610Z AUTO 02017G21KT 2SM SCT002 BKN010 OVC030 M08/M08 A2979 RMK AO1
Loading
Personal Weather Stations






























Interactive Weather Map New forecast layout! Learn more

10-Day Weather Forecast

Advertisements
Track Severe Weather on mobile